Time;durP1;ratioP1;P1;durP2;ratioP2;P2;SDS_P1;SDS_P2;PMS_P1;PMS_P2;Temp;Humidity;BMP_temperature;BMP_pressure;BME280_temperature;BME280_humidity;BME280_pressure;Samples;Min_cycle;Max_cycle;Signal;HPM_P1;HPM_P2
2023/10/07 00:02:13;;;;;;;11.40;5.05;;;14.90;99.90;;;;;;5094270;28;20031;-85
2023/10/07 00:04:44;;;;;;;15.70;5.05;;;14.90;99.90;;;;;;5094130;28;20020;-88
2023/10/07 00:07:10;;;;;;;13.55;5.57;;;14.90;99.90;;;;;;5094057;28;20035;-84
2023/10/07 00:09:43;;;;;;;9.40;4.68;;;14.90;99.90;;;;;;5111505;28;20378;-90
2023/10/07 00:12:13;;;;;;;9.00;5.10;;;14.80;99.90;;;;;;5112259;28;20110;-85
2023/10/07 00:14:39;;;;;;;12.43;5.35;;;14.80;99.90;;;;;;5092820;28;20055;-85
2023/10/07 00:17:16;;;;;;;13.57;5.32;;;14.80;99.90;;;;;;5092968;28;20108;-84
2023/10/07 00:19:43;;;;;;;11.85;5.22;;;14.80;99.90;;;;;;5093639;28;20024;-85
2023/10/07 00:22:09;;;;;;;11.38;5.30;;;14.80;99.90;;;;;;5093399;28;20430;-86
2023/10/07 00:24:42;;;;;;;9.68;5.15;;;14.80;99.90;;;;;;5111282;28;20524;-89
2023/10/07 00:27:22;;;;;;;11.93;4.88;;;14.70;99.90;;;;;;5111176;28;20035;-86
2023/10/07 00:29:54;;;;;;;10.10;5.05;;;14.70;99.90;;;;;;5111036;28;20051;-85
2023/10/07 00:32:32;;;;;;;10.13;5.20;;;14.70;99.90;;;;;;5092666;28;20023;-91
2023/10/07 00:35:01;;;;;;;8.45;4.55;;;14.70;99.90;;;;;;5092661;28;20059;-85
2023/10/07 00:37:30;;;;;;;9.55;4.70;;;14.70;99.90;;;;;;5092806;28;20072;-90
2023/10/07 00:40:00;;;;;;;9.48;4.68;;;14.60;99.90;;;;;;5110680;28;20025;-90
2023/10/07 00:42:28;;;;;;;11.15;4.85;;;14.60;99.90;;;;;;5092568;28;20475;-90
2023/10/07 00:44:55;;;;;;;11.77;5.40;;;14.50;99.90;;;;;;5110768;28;20066;-88
2023/10/07 00:47:21;;;;;;;10.48;5.32;;;14.50;99.90;;;;;;5110827;28;20498;-90
2023/10/07 00:49:54;;;;;;;8.60;4.70;;;14.50;99.90;;;;;;5092363;28;20049;-84
2023/10/07 00:52:29;;;;;;;13.15;5.30;;;14.50;99.90;;;;;;5092201;28;20104;-90
2023/10/07 01:00:00;;;;;;;10.00;4.88;;;14.50;99.90;;;;;;5110565;28;20028;-89
2023/10/07 01:02:31;;;;;;;10.23;4.90;;;14.50;99.90;;;;;;5110319;28;20032;-90
2023/10/07 01:05:13;;;;;;;10.93;4.90;;;14.50;99.90;;;;;;5092048;28;20510;-86
2023/10/07 01:07:41;;;;;;;9.68;5.22;;;14.50;99.90;;;;;;5091788;28;20050;-87
2023/10/07 01:12:44;;;;;;;9.03;4.60;;;14.50;99.90;;;;;;5110574;28;20073;-86
2023/10/07 01:15:22;;;;;;;7.75;5.07;;;14.50;99.90;;;;;;5092337;28;20494;-88
2023/10/07 01:17:55;;;;;;;11.10;5.30;;;14.50;99.90;;;;;;5110216;28;20066;-85
2023/10/07 01:20:34;;;;;;;9.45;4.97;;;14.40;99.90;;;;;;5091718;28;20399;-88
2023/10/07 01:23:03;;;;;;;12.20;5.53;;;14.40;99.90;;;;;;5110219;28;20051;-88
2023/10/07 01:25:36;;;;;;;9.57;4.78;;;14.40;99.90;;;;;;5109939;28;20023;-85
2023/10/07 01:28:04;;;;;;;8.95;5.30;;;14.40;99.90;;;;;;5110016;28;20115;-92
2023/10/07 01:30:34;;;;;;;9.97;4.90;;;14.40;99.90;;;;;;5091979;28;20043;-86
2023/10/07 01:33:15;;;;;;;14.60;4.93;;;14.40;99.90;;;;;;5092033;28;20050;-85
2023/10/07 01:36:06;;;;;;;9.63;4.85;;;14.40;99.90;;;;;;5091783;28;20046;-85
2023/10/07 01:38:31;;;;;;;10.18;5.13;;;14.40;99.90;;;;;;5109707;28;20058;-90
2023/10/07 01:41:04;;;;;;;8.88;5.22;;;14.40;99.90;;;;;;5091877;28;20395;-89
2023/10/07 01:43:30;;;;;;;10.60;4.97;;;14.40;99.90;;;;;;5091790;28;20031;-90
2023/10/07 01:45:56;;;;;;;11.60;5.55;;;14.40;99.90;;;;;;5091790;28;20019;-91
2023/10/07 01:48:21;;;;;;;10.10;5.18;;;14.30;99.90;;;;;;5091758;28;20138;-90
2023/10/07 01:50:49;;;;;;;17.27;5.70;;;14.30;99.90;;;;;;5110543;28;20039;-90
2023/10/07 01:53:15;;;;;;;12.48;5.07;;;14.30;99.90;;;;;;5110800;28;20491;-88
2023/10/07 01:55:45;;;;;;;11.80;5.30;;;14.30;99.90;;;;;;5091649;28;20024;-89
2023/10/07 01:58:15;;;;;;;10.63;4.88;;;14.20;99.90;;;;;;5109774;28;20023;-84
2023/10/07 02:00:46;;;;;;;11.77;4.93;;;14.20;99.90;;;;;;5109632;28;20047;-84
2023/10/07 02:03:16;;;;;;;10.15;4.82;;;14.10;99.90;;;;;;5109781;28;20097;-84
2023/10/07 02:05:51;;;;;;;10.13;4.32;;;14.00;99.90;;;;;;5109564;28;20019;-89
2023/10/07 02:08:23;;;;;;;8.18;4.57;;;14.00;99.90;;;;;;5110670;28;20102;-88
2023/10/07 02:10:50;;;;;;;7.22;4.30;;;14.00;99.90;;;;;;5092228;28;20028;-88
2023/10/07 02:13:19;;;;;;;9.90;4.32;;;13.90;99.90;;;;;;5110356;28;20027;-85
2023/10/07 02:15:46;;;;;;;10.73;4.35;;;13.90;99.90;;;;;;5110445;28;20498;-84
2023/10/07 02:18:15;;;;;;;6.68;3.97;;;13.80;99.90;;;;;;5109321;28;20034;-85
2023/10/07 02:20:49;;;;;;;7.70;4.45;;;13.80;99.90;;;;;;5109652;28;20028;-83
2023/10/07 02:23:21;;;;;;;8.07;4.35;;;13.80;99.90;;;;;;5091409;28;20095;-91
2023/10/07 02:25:49;;;;;;;9.90;4.90;;;13.80;99.90;;;;;;5092038;28;20051;-87
2023/10/07 02:28:16;;;;;;;13.30;4.53;;;13.70;99.90;;;;;;5109370;28;20479;-85
2023/10/07 02:30:51;;;;;;;9.98;4.80;;;13.70;99.90;;;;;;5091384;28;20035;-89
2023/10/07 02:33:21;;;;;;;10.43;4.50;;;13.70;99.90;;;;;;5092248;28;20027;-84
2023/10/07 02:35:54;;;;;;;9.15;4.80;;;13.70;99.90;;;;;;5110191;28;20081;-85
2023/10/07 02:38:25;;;;;;;8.07;4.30;;;13.60;99.90;;;;;;5093422;28;20031;-86
2023/10/07 02:40:52;;;;;;;8.55;4.47;;;13.50;99.90;;;;;;5113980;28;20026;-89
2023/10/07 02:43:18;;;;;;;10.23;4.88;;;13.50;99.90;;;;;;5096031;28;20081;-89
2023/10/07 02:45:43;;;;;;;8.20;4.53;;;13.50;99.90;;;;;;5094866;28;20019;-88
2023/10/07 02:48:12;;;;;;;11.65;4.95;;;13.50;99.90;;;;;;5094846;28;20038;-84
2023/10/07 02:50:42;;;;;;;9.05;4.13;;;13.40;99.90;;;;;;5094761;28;20035;-84
2023/10/07 02:53:15;;;;;;;7.97;4.68;;;13.40;99.90;;;;;;5094897;28;20057;-88
2023/10/07 02:55:47;;;;;;;10.15;4.25;;;13.40;99.90;;;;;;5094650;28;20024;-90
2023/10/07 02:58:32;;;;;;;7.75;4.43;;;13.40;99.90;;;;;;5094786;28;20031;-89
2023/10/07 03:01:10;;;;;;;9.27;4.68;;;13.30;99.90;;;;;;5112798;28;20059;-86
2023/10/07 03:03:41;;;;;;;10.18;4.88;;;13.40;99.90;;;;;;5094658;28;20016;-90
2023/10/07 03:06:07;;;;;;;8.45;4.43;;;13.30;99.90;;;;;;5112627;28;20055;-88
2023/10/07 03:08:40;;;;;;;11.68;4.97;;;13.30;99.90;;;;;;5112779;28;20027;-88
2023/10/07 03:11:20;;;;;;;12.50;4.60;;;13.30;99.90;;;;;;5112726;28;20106;-84
2023/10/07 03:13:47;;;;;;;7.63;4.00;;;13.30;99.90;;;;;;5112617;28;20024;-84
2023/10/07 03:19:06;;;;;;;7.20;4.68;;;13.20;99.90;;;;;;5112540;28;20020;-83
2023/10/07 03:24:11;;;;;;;6.50;4.30;;;13.20;99.90;;;;;;5112444;28;20020;-89
2023/10/07 03:26:40;;;;;;;8.35;4.45;;;13.20;99.90;;;;;;5094015;28;20035;-84
2023/10/07 03:29:05;;;;;;;8.43;4.28;;;13.20;99.90;;;;;;5112537;28;20015;-88
2023/10/07 03:31:35;;;;;;;7.95;4.30;;;13.20;99.90;;;;;;5112200;28;20032;-84
2023/10/07 03:34:03;;;;;;;9.75;4.55;;;13.20;99.90;;;;;;5093950;28;20016;-89
2023/10/07 03:36:43;;;;;;;6.87;4.53;;;13.20;99.90;;;;;;5094174;28;20402;-86
2023/10/07 03:39:23;;;;;;;8.77;4.30;;;13.30;99.90;;;;;;5112161;28;20051;-88
2023/10/07 03:41:55;;;;;;;7.43;4.15;;;13.30;99.90;;;;;;5094372;28;20463;-84
2023/10/07 03:44:25;;;;;;;7.57;4.40;;;13.30;99.90;;;;;;5112868;28;20403;-84
2023/10/07 03:46:54;;;;;;;7.03;4.45;;;13.30;99.90;;;;;;5094700;28;20031;-89
2023/10/07 03:49:22;;;;;;;5.90;4.22;;;13.30;99.90;;;;;;5094245;28;20036;-84
2023/10/07 03:51:52;;;;;;;7.22;4.32;;;13.20;99.90;;;;;;5093482;28;20106;-87
2023/10/07 03:54:29;;;;;;;12.95;4.90;;;13.30;99.90;;;;;;5094445;28;20038;-88
2023/10/07 03:56:56;;;;;;;11.90;4.97;;;13.20;99.90;;;;;;5093665;28;20016;-84
2023/10/07 03:59:22;;;;;;;7.20;4.43;;;13.20;99.90;;;;;;5112576;28;20483;-86
2023/10/07 04:01:53;;;;;;;7.82;4.45;;;13.20;99.90;;;;;;5093243;28;20219;-83
2023/10/07 04:04:22;;;;;;;9.02;4.55;;;13.10;99.90;;;;;;5093279;28;20044;-84
2023/10/07 04:06:48;;;;;;;7.72;4.22;;;13.10;99.90;;;;;;5111514;28;20023;-84
2023/10/07 04:09:14;;;;;;;7.05;3.80;;;13.10;99.90;;;;;;5093214;28;20034;-91
2023/10/07 04:11:48;;;;;;;8.82;4.55;;;13.10;99.90;;;;;;5093340;28;20027;-88
2023/10/07 04:14:27;;;;;;;11.95;4.05;;;13.10;99.90;;;;;;5111330;28;20076;-84
2023/10/07 04:16:54;;;;;;;13.23;4.10;;;13.20;99.90;;;;;;5094068;28;20035;-84
2023/10/07 04:21:51;;;;;;;10.50;4.55;;;13.10;99.90;;;;;;5111394;28;20499;-88
2023/10/07 04:24:20;;;;;;;6.18;3.78;;;13.10;99.90;;;;;;5111375;28;20679;-90
2023/10/07 04:27:53;;;;;;;14.77;4.40;;;13.20;99.90;;;;;;5111100;28;20057;-86
2023/10/07 04:29:42;;;;;;;8.45;4.20;;;13.10;99.90;;;;;;5088968;28;20112;-83
2023/10/07 04:32:29;;;;;;;5.90;4.20;;;13.10;99.90;;;;;;5111004;28;20425;-88
2023/10/07 04:38:08;;;;;;;8.95;4.40;;;13.20;99.90;;;;;;5111143;28;20034;-84
2023/10/07 04:41:16;;;;;;;8.57;4.50;;;13.20;99.90;;;;;;5092662;28;20011;-89
2023/10/07 04:43:31;;;;;;;6.53;3.92;;;13.20;99.90;;;;;;5110809;28;20028;-84
2023/10/07 04:45:58;;;;;;;6.90;4.10;;;13.10;99.90;;;;;;5111586;28;20027;-85
2023/10/07 04:48:24;;;;;;;10.85;4.32;;;13.10;99.90;;;;;;5111695;28;20028;-84
2023/10/07 04:51:08;;;;;;;7.30;4.32;;;13.20;99.90;;;;;;5092548;28;20031;-84
2023/10/07 04:53:39;;;;;;;8.38;4.60;;;13.10;99.90;;;;;;5110567;28;20076;-83
2023/10/07 04:56:10;;;;;;;9.88;4.30;;;13.00;99.90;;;;;;5092344;28;20497;-87
2023/10/07 04:58:40;;;;;;;6.57;4.20;;;13.10;99.90;;;;;;5110512;28;20047;-86
2023/10/07 05:01:22;;;;;;;11.60;4.25;;;13.00;99.90;;;;;;5109984;28;20391;-83
2023/10/07 05:03:52;;;;;;;11.25;4.18;;;13.00;99.90;;;;;;5110500;28;20046;-90
2023/10/07 05:06:18;;;;;;;7.13;4.18;;;12.90;99.90;;;;;;5110509;28;20025;-89
2023/10/07 05:08:45;;;;;;;7.45;3.88;;;12.80;99.90;;;;;;5110264;28;20031;-84
2023/10/07 05:11:17;;;;;;;7.80;4.20;;;12.90;99.90;;;;;;5110212;28;20020;-83
2023/10/07 05:13:44;;;;;;;7.43;4.22;;;12.80;99.90;;;;;;5091939;28;20055;-89
2023/10/07 05:16:11;;;;;;;8.63;4.57;;;12.80;99.90;;;;;;5092086;28;20034;-84
2023/10/07 05:18:38;;;;;;;7.63;4.18;;;12.80;99.90;;;;;;5092190;28;20107;-84
2023/10/07 05:21:06;;;;;;;10.80;4.40;;;12.80;99.90;;;;;;5092017;28;20115;-88
2023/10/07 05:23:34;;;;;;;12.38;4.07;;;12.80;99.90;;;;;;5091971;28;20047;-83
2023/10/07 05:26:03;;;;;;;9.38;4.35;;;12.70;99.90;;;;;;5092513;28;20032;-83
2023/10/07 05:28:33;;;;;;;8.38;4.18;;;12.70;99.90;;;;;;5110844;28;20043;-87
2023/10/07 05:31:03;;;;;;;9.60;3.97;;;12.70;99.90;;;;;;5110727;28;20144;-84
2023/10/07 05:33:34;;;;;;;7.03;3.95;;;12.70;99.90;;;;;;5110812;28;20053;-85
2023/10/07 05:36:11;;;;;;;6.75;3.92;;;12.60;99.90;;;;;;5110800;28;20513;-84
2023/10/07 05:38:37;;;;;;;7.63;4.30;;;12.60;99.90;;;;;;5091634;28;20033;-89
2023/10/07 05:41:06;;;;;;;11.65;4.35;;;12.60;99.90;;;;;;5091522;28;20395;-88
2023/10/07 05:43:32;;;;;;;;;;;12.60;99.90;;;;;;5110288;28;20020;-83
2023/10/07 05:45:58;;;;;;;6.93;3.95;;;12.60;99.90;;;;;;5110638;28;19929;-89
2023/10/07 05:48:25;;;;;;;6.10;3.80;;;12.50;99.90;;;;;;5091681;28;20031;-87
2023/10/07 05:50:54;;;;;;;7.45;4.18;;;12.50;99.90;;;;;;5091372;28;20475;-90
2023/10/07 05:53:20;;;;;;;5.90;3.75;;;12.40;99.90;;;;;;5109865;28;20020;-84
2023/10/07 05:55:47;;;;;;;8.32;4.10;;;12.40;99.90;;;;;;5109730;28;20475;-83
2023/10/07 05:58:14;;;;;;;9.88;4.03;;;12.40;99.90;;;;;;5091475;28;20028;-90
2023/10/07 06:00:40;;;;;;;6.32;3.95;;;12.50;99.90;;;;;;5091340;28;20046;-83
2023/10/07 06:03:06;;;;;;;8.85;4.07;;;12.40;99.90;;;;;;5109407;28;20034;-83
2023/10/07 06:05:37;;;;;;;10.48;3.97;;;12.40;99.90;;;;;;5110101;28;20073;-84
2023/10/07 06:08:07;;;;;;;13.50;4.18;;;12.40;99.90;;;;;;5091221;28;20109;-83
2023/10/07 06:10:33;;;;;;;7.68;4.03;;;12.40;99.90;;;;;;5109308;28;20380;-84
2023/10/07 06:13:08;;;;;;;7.63;4.15;;;12.40;99.90;;;;;;5093138;28;20126;-84
2023/10/07 06:15:37;;;;;;;8.88;4.25;;;12.40;99.90;;;;;;5113576;28;20016;-83
2023/10/07 06:18:04;;;;;;;6.88;4.00;;;12.40;99.90;;;;;;5114249;28;20057;-84
2023/10/07 06:20:37;;;;;;;8.15;3.97;;;12.30;99.90;;;;;;5096261;28;20023;-84
2023/10/07 06:23:15;;;;;;;5.28;3.40;;;12.40;99.90;;;;;;5096118;28;20032;-83
2023/10/07 06:25:51;;;;;;;6.13;3.65;;;12.30;99.90;;;;;;5113666;28;20024;-91
2023/10/07 06:33:59;;;;;;;7.65;4.05;;;12.30;99.90;;;;;;5113735;28;20387;-88
2023/10/07 06:36:26;;;;;;;10.25;3.92;;;12.30;99.90;;;;;;5095091;28;20040;-86
2023/10/07 06:38:53;;;;;;;6.00;3.67;;;12.30;99.90;;;;;;5095191;28;20509;-83
2023/10/07 06:41:19;;;;;;;5.25;3.47;;;12.30;99.90;;;;;;5113135;28;20102;-87
2023/10/07 06:43:47;;;;;;;7.88;3.95;;;12.30;99.90;;;;;;5113309;28;20536;-84
2023/10/07 06:46:13;;;;;;;8.20;4.15;;;12.40;99.90;;;;;;5094897;28;20028;-89
2023/10/07 06:48:42;;;;;;;9.73;4.45;;;12.50;99.90;;;;;;5094716;28;20130;-83
2023/10/07 06:51:11;;;;;;;7.13;4.10;;;12.50;99.90;;;;;;5094875;28;20019;-84
2023/10/07 06:53:40;;;;;;;8.23;4.22;;;12.50;99.90;;;;;;5112854;28;20015;-83
2023/10/07 06:56:06;;;;;;;6.85;4.20;;;12.50;99.90;;;;;;5113023;28;20099;-84
2023/10/07 06:58:35;;;;;;;7.75;4.03;;;12.50;99.90;;;;;;5095623;28;20546;-85
2023/10/07 07:01:17;;;;;;;14.50;4.28;;;12.60;99.90;;;;;;5113790;28;20043;-89
2023/10/07 07:03:43;;;;;;;8.23;4.63;;;12.70;99.90;;;;;;5112863;28;20019;-85
2023/10/07 07:06:16;;;;;;;8.32;3.83;;;12.80;99.90;;;;;;5094729;28;20032;-85
2023/10/07 07:08:43;;;;;;;5.65;3.65;;;12.80;99.90;;;;;;5112807;28;20028;-89
2023/10/07 07:11:10;;;;;;;6.97;4.10;;;12.80;99.90;;;;;;5112638;28;20031;-83
2023/10/07 07:13:40;;;;;;;7.78;4.15;;;12.90;99.90;;;;;;5112585;28;20019;-84
2023/10/07 07:16:06;;;;;;;9.93;4.72;;;13.00;99.90;;;;;;5094868;28;20020;-84
2023/10/07 07:18:32;;;;;;;9.45;4.68;;;13.10;99.90;;;;;;5095141;28;20024;-90
2023/10/07 07:21:01;;;;;;;8.05;3.70;;;13.20;99.90;;;;;;5112621;28;20432;-88
2023/10/07 07:23:36;;;;;;;10.45;4.30;;;13.20;99.90;;;;;;5112225;28;20028;-89
2023/10/07 07:28:30;;;;;;;9.90;4.35;;;13.40;99.90;;;;;;5112590;28;20083;-88
2023/10/07 07:30:59;;;;;;;8.55;4.15;;;13.40;99.90;;;;;;5094610;28;20024;-88
2023/10/07 07:33:31;;;;;;;10.38;4.20;;;13.40;99.90;;;;;;5112574;28;20024;-88
2023/10/07 07:35:57;;;;;;;8.80;4.32;;;13.50;99.90;;;;;;5096623;28;20225;-88
2023/10/07 07:38:29;;;;;;;10.82;4.85;;;13.60;99.90;;;;;;5098672;28;20387;-89
2023/10/07 07:41:05;;;;;;;10.02;4.55;;;13.70;99.90;;;;;;5112350;28;20020;-88
2023/10/07 07:43:37;;;;;;;11.63;5.18;;;13.70;99.90;;;;;;5093956;28;20031;-86
2023/10/07 07:46:18;;;;;;;11.82;4.53;;;13.70;99.90;;;;;;5113020;28;20489;-88
2023/10/07 07:48:48;;;;;;;13.00;5.65;;;13.80;99.90;;;;;;5112202;28;20437;-89
2023/10/07 07:51:17;;;;;;;11.35;4.70;;;13.90;99.90;;;;;;5111842;28;20016;-84
2023/10/07 07:53:45;;;;;;;11.15;5.50;;;13.90;99.90;;;;;;5111855;28;20106;-87
2023/10/07 07:56:13;;;;;;;7.78;4.80;;;14.00;99.90;;;;;;5111832;28;20024;-85
2023/10/07 07:58:41;;;;;;;10.95;5.53;;;14.10;99.90;;;;;;5093414;28;20043;-85
2023/10/07 08:01:15;;;;;;;8.63;5.07;;;14.20;99.90;;;;;;5112458;28;20022;-91
2023/10/07 08:03:41;;;;;;;12.30;5.18;;;14.30;99.90;;;;;;5093475;28;20554;-88
2023/10/07 08:06:11;;;;;;;13.07;5.85;;;14.30;99.90;;;;;;5112274;28;20051;-84
2023/10/07 08:08:37;;;;;;;14.27;6.05;;;14.40;99.90;;;;;;5112390;28;20027;-89
2023/10/07 08:11:05;;;;;;;14.50;6.05;;;14.50;99.90;;;;;;5111425;28;20111;-85
2023/10/07 08:13:31;;;;;;;17.98;6.05;;;14.50;99.90;;;;;;5093253;28;20397;-84
2023/10/07 08:16:05;;;;;;;11.65;6.43;;;14.70;99.90;;;;;;5093326;28;20028;-89
2023/10/07 08:18:31;;;;;;;14.98;6.60;;;14.80;99.90;;;;;;5111355;28;20027;-87
2023/10/07 08:21:06;;;;;;;12.50;6.18;;;14.90;99.90;;;;;;5111304;28;20027;-85
2023/10/07 08:23:36;;;;;;;15.57;6.57;;;14.90;99.90;;;;;;5111242;28;20079;-85
2023/10/07 08:26:22;;;;;;;10.95;6.00;;;15.00;99.90;;;;;;5110951;28;20065;-90
2023/10/07 08:31:36;;;;;;;12.32;6.22;;;15.20;99.90;;;;;;5110922;28;20471;-84
2023/10/07 08:36:37;;;;;;;12.95;6.32;;;15.20;99.90;;;;;;5109798;28;20019;-84
2023/10/07 08:39:06;;;;;;;11.48;5.50;;;15.30;99.90;;;;;;5110716;28;20027;-84
2023/10/07 08:41:32;;;;;;;13.93;6.07;;;15.50;99.90;;;;;;5110622;28;20023;-90
2023/10/07 08:44:13;;;;;;;15.63;5.90;;;15.50;99.90;;;;;;5110745;28;20091;-89
2023/10/07 08:46:48;;;;;;;11.50;5.70;;;15.60;99.90;;;;;;5111704;28;20016;-90
2023/10/07 08:49:24;;;;;;;11.43;5.40;;;15.70;99.90;;;;;;5092531;28;20035;-90
2023/10/07 08:51:52;;;;;;;9.35;5.20;;;15.80;99.90;;;;;;5110338;28;20027;-84
2023/10/07 08:54:18;;;;;;;11.85;5.30;;;15.90;99.90;;;;;;5110611;28;20030;-84
2023/10/07 08:56:54;;;;;;;10.45;5.55;;;16.00;99.90;;;;;;5110505;28;20032;-90
2023/10/07 08:59:32;;;;;;;10.73;4.70;;;16.10;99.90;;;;;;5110525;28;20043;-84
2023/10/07 09:02:04;;;;;;;11.07;5.20;;;16.10;99.90;;;;;;5087312;28;20034;-84
2023/10/07 09:04:33;;;;;;;8.43;5.18;;;16.20;99.90;;;;;;5092128;28;20034;-85
2023/10/07 09:07:08;;;;;;;9.07;4.90;;;16.30;99.90;;;;;;5110172;28;20514;-90
2023/10/07 09:09:38;;;;;;;9.55;5.22;;;16.40;99.90;;;;;;5092066;28;20428;-90
2023/10/07 09:12:28;;;;;;;9.10;4.75;;;16.50;99.90;;;;;;5110201;28;20028;-85
2023/10/07 09:14:57;;;;;;;12.73;5.10;;;16.60;99.90;;;;;;5092224;28;20024;-87
2023/10/07 09:17:27;;;;;;;12.35;5.40;;;16.60;99.90;;;;;;5110214;28;20043;-85
2023/10/07 09:19:57;;;;;;;8.52;4.68;;;16.70;99.90;;;;;;5092016;28;20027;-84
2023/10/07 09:22:33;;;;;;;10.32;4.63;;;16.80;99.90;;;;;;5091919;28;20027;-84
2023/10/07 09:25:16;;;;;;;12.45;4.78;;;16.80;99.90;;;;;;5110083;28;20068;-84
2023/10/07 09:27:54;;;;;;;8.25;5.10;;;17.00;99.90;;;;;;5092253;28;20031;-84
2023/10/07 09:31:06;;;;;;;10.05;5.30;;;17.10;99.90;;;;;;5091595;28;20077;-84
2023/10/07 09:33:17;;;;;;;14.45;4.55;;;17.10;99.90;;;;;;5098837;28;20024;-85
2023/10/07 09:38:41;;;;;;;12.02;4.80;;;17.40;99.90;;;;;;5110008;28;20048;-84
2023/10/07 09:41:24;;;;;;;9.80;4.72;;;17.50;99.90;;;;;;5091335;28;20034;-84
2023/10/07 09:43:56;;;;;;;8.05;4.68;;;17.50;99.90;;;;;;5091518;28;20031;-84
2023/10/07 09:46:25;;;;;;;10.70;4.40;;;17.60;99.90;;;;;;5091390;28;20023;-85
2023/10/07 09:48:52;;;;;;;10.30;4.40;;;17.70;99.90;;;;;;5091119;28;20039;-84
2023/10/07 09:51:34;;;;;;;7.88;4.20;;;17.80;99.90;;;;;;5109372;28;20048;-84
2023/10/07 09:54:22;;;;;;;9.27;4.45;;;17.80;99.90;;;;;;5090480;28;20039;-84
2023/10/07 09:57:22;;;;;;;7.85;4.13;;;17.90;99.90;;;;;;5091611;28;20510;-84
2023/10/07 09:59:59;;;;;;;9.73;4.20;;;18.00;99.90;;;;;;5091288;28;20027;-84
2023/10/07 10:02:32;;;;;;;6.93;4.15;;;18.00;99.90;;;;;;5091109;28;20395;-90
2023/10/07 10:05:11;;;;;;;10.02;4.50;;;18.10;99.90;;;;;;5091055;28;20495;-85
2023/10/07 10:07:53;;;;;;;10.40;4.38;;;18.20;99.90;;;;;;5091035;28;20081;-84
2023/10/07 10:10:30;;;;;;;11.27;4.20;;;18.30;99.90;;;;;;5109387;28;20047;-84
2023/10/07 10:18:31;;;;;;;10.05;3.72;;;18.50;99.90;;;;;;5109381;28;20024;-85
2023/10/07 10:21:12;;;;;;;10.05;4.00;;;18.60;99.90;;;;;;5108970;28;20475;-84
2023/10/07 10:23:40;;;;;;;8.13;3.95;;;18.70;99.90;;;;;;5109303;28;20016;-89
2023/10/07 10:26:20;;;;;;;11.23;4.25;;;18.80;99.90;;;;;;5109288;28;20122;-84
2023/10/07 10:29:00;;;;;;;19.13;9.75;;;18.80;99.90;;;;;;5091602;28;20513;-85
2023/10/07 10:31:32;;;;;;;16.10;6.88;;;19.00;99.90;;;;;;5090983;28;20030;-86
2023/10/07 10:34:01;;;;;;;7.70;4.63;;;19.00;99.90;;;;;;5109004;28;20024;-84
2023/10/07 10:36:26;;;;;;;5.38;3.40;;;19.00;99.90;;;;;;5109154;28;20413;-87
2023/10/07 10:38:52;;;;;;;8.23;3.70;;;19.00;99.90;;;;;;5090975;28;20053;-84
2023/10/07 10:41:28;;;;;;;8.65;3.83;;;19.10;99.90;;;;;;5109092;28;20020;-84
2023/10/07 10:44:10;;;;;;;8.02;3.70;;;19.10;99.90;;;;;;5090755;28;20092;-83
2023/10/07 10:46:44;;;;;;;9.90;3.90;;;19.10;99.90;;;;;;5090727;28;20032;-83
2023/10/07 10:49:12;;;;;;;5.47;3.28;;;19.20;99.90;;;;;;5090981;28;20485;-85
2023/10/07 10:51:45;;;;;;;8.02;3.80;;;19.20;99.90;;;;;;5109057;28;20189;-84
2023/10/07 10:54:13;;;;;;;7.93;3.47;;;19.30;99.90;;;;;;5108890;28;20410;-84
2023/10/07 10:56:50;;;;;;;11.00;3.63;;;19.40;99.90;;;;;;5108958;28;20148;-83
2023/10/07 10:59:18;;;;;;;6.32;3.30;;;19.40;99.90;;;;;;5111038;28;20028;-84
2023/10/07 11:01:44;;;;;;;5.15;3.13;;;19.40;99.90;;;;;;5113541;28;20467;-84
2023/10/07 11:04:15;;;;;;;9.50;3.22;;;19.50;99.90;;;;;;5112659;28;20028;-84
2023/10/07 11:06:40;;;;;;;12.52;3.58;;;19.50;99.90;;;;;;5112528;28;20495;-84
2023/10/07 11:09:08;;;;;;;6.20;3.40;;;19.50;99.90;;;;;;5112565;28;20055;-84
2023/10/07 11:11:35;;;;;;;;;;;19.40;99.90;;;;;;5094715;28;20024;-84
2023/10/07 11:14:13;;;;;;;5.47;3.20;;;19.50;99.90;;;;;;5094176;28;19926;-85
2023/10/07 11:16:49;;;;;;;6.15;2.92;;;19.40;99.90;;;;;;5094292;28;20437;-84
2023/10/07 11:19:15;;;;;;;4.47;3.17;;;19.30;99.90;;;;;;5113270;28;20023;-89
2023/10/07 11:21:44;;;;;;;9.75;3.33;;;19.40;99.90;;;;;;5094024;28;20408;-84
2023/10/07 11:24:14;;;;;;;10.35;3.47;;;19.40;99.90;;;;;;5093960;28;20034;-84
2023/10/07 11:26:43;;;;;;;7.22;3.13;;;19.40;99.90;;;;;;5112124;28;20104;-84
2023/10/07 11:29:15;;;;;;;8.48;3.20;;;19.50;99.90;;;;;;5093894;28;20448;-84
2023/10/07 11:31:41;;;;;;;7.22;2.95;;;19.40;99.90;;;;;;5111992;28;20020;-84
2023/10/07 11:34:10;;;;;;;7.45;3.40;;;19.50;99.90;;;;;;5111824;28;20034;-84
2023/10/07 11:36:45;;;;;;;6.63;3.55;;;19.60;99.90;;;;;;5111803;28;20015;-85
2023/10/07 11:39:13;;;;;;;9.40;4.13;;;19.60;99.90;;;;;;5093874;28;20512;-84
2023/10/07 11:41:42;;;;;;;8.98;3.60;;;19.60;99.90;;;;;;5093482;28;20526;-84
2023/10/07 11:44:12;;;;;;;5.68;2.95;;;19.60;99.90;;;;;;5093497;28;20027;-84
2023/10/07 11:46:41;;;;;;;5.35;2.95;;;19.70;99.90;;;;;;5111526;28;20077;-84
2023/10/07 11:49:08;;;;;;;5.47;2.90;;;19.70;99.90;;;;;;5111513;28;20027;-84
2023/10/07 11:51:34;;;;;;;10.47;2.80;;;19.80;99.90;;;;;;5111513;28;20023;-84
2023/10/07 11:54:00;;;;;;;6.63;3.30;;;19.90;99.90;;;;;;5111508;28;20020;-84
2023/10/07 11:56:27;;;;;;;6.10;3.17;;;19.90;99.90;;;;;;5111465;28;20137;-85
2023/10/07 11:58:53;;;;;;;6.60;3.20;;;19.90;99.90;;;;;;5093084;28;20019;-84
2023/10/07 12:01:20;;;;;;;10.25;3.25;;;19.90;99.90;;;;;;5112142;28;20024;-83
2023/10/07 12:03:46;;;;;;;7.13;3.03;;;20.00;99.90;;;;;;5093883;28;20020;-84
2023/10/07 12:06:12;;;;;;;7.10;3.33;;;20.10;99.90;;;;;;5093093;28;20019;-84
2023/10/07 12:08:38;;;;;;;12.02;3.20;;;20.10;99.90;;;;;;5111278;28;20430;-84
2023/10/07 12:11:05;;;;;;;8.82;3.55;;;20.10;99.90;;;;;;5111164;28;20012;-83
2023/10/07 12:13:31;;;;;;;5.78;2.90;;;20.10;99.90;;;;;;5111142;28;20053;-84
2023/10/07 12:15:57;;;;;;;7.35;3.03;;;20.20;99.90;;;;;;5092884;28;20494;-84
2023/10/07 12:18:25;;;;;;;;;;;20.30;99.90;;;;;;5093321;28;20023;-89
2023/10/07 12:20:55;;;;;;;6.70;3.22;;;20.30;99.90;;;;;;5111847;28;19904;-89
2023/10/07 12:23:20;;;;;;;7.50;3.38;;;20.20;99.90;;;;;;5093578;28;20027;-85
2023/10/07 12:25:46;;;;;;;5.97;3.00;;;20.20;99.90;;;;;;5110948;28;20031;-84
2023/10/07 12:28:13;;;;;;;5.53;2.90;;;20.30;99.90;;;;;;5110929;28;20308;-84
2023/10/07 12:30:38;;;;;;;5.15;3.08;;;20.30;99.90;;;;;;5092601;28;20020;-85
2023/10/07 12:33:04;;;;;;;7.40;3.53;;;20.30;99.90;;;;;;5110850;28;20023;-87
2023/10/07 12:35:33;;;;;;;7.10;2.90;;;20.40;99.90;;;;;;5110776;28;20038;-84
2023/10/07 12:38:00;;;;;;;6.32;2.90;;;20.40;99.90;;;;;;5092341;28;20142;-84
2023/10/07 12:40:28;;;;;;;7.65;3.05;;;20.50;99.90;;;;;;5092352;28;20055;-84
2023/10/07 12:42:56;;;;;;;7.07;2.83;;;20.50;99.90;;;;;;5110555;28;20107;-84
2023/10/07 12:45:21;;;;;;;7.13;2.63;;;20.60;99.90;;;;;;5111297;28;20024;-85
2023/10/07 12:47:51;;;;;;;4.53;2.35;;;20.60;99.90;;;;;;5110420;28;20077;-88
2023/10/07 12:50:20;;;;;;;5.82;2.50;;;20.70;99.90;;;;;;5110279;28;20023;-84
2023/10/07 12:52:50;;;;;;;6.00;2.53;;;20.70;99.90;;;;;;5110433;28;20107;-84
2023/10/07 12:55:16;;;;;;;6.10;2.20;;;20.60;99.90;;;;;;5110367;28;20051;-84
2023/10/07 12:57:43;;;;;;;6.63;2.78;;;20.60;99.90;;;;;;5092100;28;20030;-84
2023/10/07 13:00:19;;;;;;;6.25;2.40;;;20.70;99.90;;;;;;5110374;28;20058;-84
2023/10/07 13:02:52;;;;;;;5.78;2.60;;;20.70;99.90;;;;;;5091895;28;20784;-88
2023/10/07 13:05:18;;;;;;;4.60;2.58;;;20.80;99.90;;;;;;5091831;28;20023;-84
2023/10/07 13:07:45;;;;;;;4.70;2.40;;;20.90;99.90;;;;;;5109574;28;20040;-85
2023/10/07 13:10:11;;;;;;;6.57;2.40;;;20.90;99.90;;;;;;5110057;28;20089;-85
2023/10/07 13:12:37;;;;;;;6.60;3.20;;;21.00;99.90;;;;;;5110467;28;20364;-89
2023/10/07 13:15:14;;;;;;;4.20;2.42;;;21.10;99.90;;;;;;5091745;28;20547;-84
2023/10/07 13:17:45;;;;;;;5.75;2.67;;;21.10;99.90;;;;;;5091733;28;20054;-84
2023/10/07 13:20:23;;;;;;;5.68;2.53;;;21.10;99.90;;;;;;5091878;28;20024;-84
2023/10/07 13:22:52;;;;;;;5.40;2.35;;;21.20;99.90;;;;;;5109509;28;20405;-84
2023/10/07 13:25:19;;;;;;;4.95;2.65;;;21.20;99.90;;;;;;5109839;28;20213;-84
2023/10/07 13:27:46;;;;;;;7.07;2.90;;;21.30;99.90;;;;;;5110056;28;20035;-85
2023/10/07 13:30:13;;;;;;;6.80;2.90;;;21.30;99.90;;;;;;5091685;28;20114;-84
2023/10/07 13:32:46;;;;;;;5.55;3.15;;;21.30;99.90;;;;;;5091586;28;20028;-84
2023/10/07 13:35:16;;;;;;;7.68;3.53;;;21.30;99.90;;;;;;5091763;28;20024;-84
2023/10/07 13:37:43;;;;;;;6.88;3.30;;;21.40;99.90;;;;;;5109625;28;20019;-84
2023/10/07 13:40:15;;;;;;;6.93;3.20;;;21.40;99.90;;;;;;5091599;28;20042;-90
2023/10/07 13:42:44;;;;;;;9.80;3.13;;;21.40;99.90;;;;;;5109830;28;20024;-85